Time;durP1;ratioP1;P1;durP2;ratioP2;P2;SDS_P1;SDS_P2;PMS_P1;PMS_P2;Temp;Humidity;BMP_temperature;BMP_pressure;BME280_temperature;BME280_humidity;BME280_pressure;Samples;Min_cycle;Max_cycle;Signal;HPM_P1;HPM_P2
2023/04/25 00:00:54;;;;;;;7.70;2.83;;;;;;;7.63;65.33;100311.88;4985473;28;20030;-51
2023/04/25 00:03:20;;;;;;;8.90;2.45;;;;;;;7.63;65.37;100304.84;4983117;28;20034;-51
2023/04/25 00:05:46;;;;;;;5.40;2.90;;;;;;;7.61;65.61;100308.47;4982689;28;20118;-51
2023/04/25 00:08:12;;;;;;;23.00;3.63;;;;;;;7.60;65.82;100309.38;4986731;28;20105;-51
2023/04/25 00:10:37;;;;;;;9.63;3.42;;;;;;;7.59;66.22;100310.31;4981560;28;20510;-51
2023/04/25 00:13:02;;;;;;;14.52;4.18;;;;;;;7.54;66.13;100306.09;4976535;28;20026;-51
2023/04/25 00:15:30;;;;;;;6.65;3.00;;;;;;;7.57;66.29;100309.50;4981829;28;20041;-51
2023/04/25 00:17:56;;;;;;;4.68;2.75;;;;;;;7.62;66.70;100312.84;4978887;28;20054;-51
2023/04/25 00:20:23;;;;;;;10.57;3.33;;;;;;;7.59;66.18;100312.94;4979645;28;20371;-51
2023/04/25 00:22:49;;;;;;;10.45;3.00;;;;;;;7.54;66.27;100316.59;4981614;28;20030;-51
2023/04/25 00:25:14;;;;;;;7.40;3.08;;;;;;;7.56;66.50;100308.66;4975771;28;20125;-51
2023/04/25 00:27:41;;;;;;;6.90;3.60;;;;;;;7.56;67.20;100315.69;4983263;28;20040;-51
2023/04/25 00:30:07;;;;;;;10.68;3.47;;;;;;;7.52;66.73;100307.09;4983434;28;20038;-51
2023/04/25 00:32:33;;;;;;;5.28;3.70;;;;;;;7.51;66.95;100311.47;4981913;28;20042;-52
2023/04/25 00:34:58;;;;;;;5.55;2.70;;;;;;;7.52;66.66;100296.56;4981325;28;20042;-51
2023/04/25 00:37:23;;;;;;;7.72;3.25;;;;;;;7.52;66.60;100307.94;4980071;28;20149;-51
2023/04/25 00:39:49;;;;;;;6.13;3.28;;;;;;;7.51;66.89;100315.88;4979355;28;20046;-51
2023/04/25 00:42:15;;;;;;;11.63;3.90;;;;;;;7.52;66.89;100302.66;4981088;28;20038;-51
2023/04/25 00:44:41;;;;;;;11.57;3.90;;;;;;;7.46;67.01;100308.16;4973959;28;20527;-53
2023/04/25 00:47:06;;;;;;;7.57;3.08;;;;;;;7.49;66.87;100307.19;4985568;28;20154;-51
2023/04/25 00:49:32;;;;;;;9.32;3.08;;;;;;;7.44;66.49;100314.41;4994371;28;20031;-51
2023/04/25 00:51:57;;;;;;;6.80;3.15;;;;;;;7.42;66.91;100296.06;4980732;28;20023;-51
2023/04/25 00:54:23;;;;;;;6.57;3.05;;;;;;;7.44;66.46;100310.00;4986456;28;20030;-51
2023/04/25 00:56:48;;;;;;;9.57;3.28;;;;;;;7.43;66.57;100303.03;4982568;28;20034;-53
2023/04/25 00:59:15;;;;;;;12.50;3.45;;;;;;;7.43;66.92;100310.91;4978985;28;20049;-51
2023/04/25 01:01:41;;;;;;;10.10;3.95;;;;;;;7.47;66.95;100309.88;4981515;28;20038;-51
2023/04/25 01:04:07;;;;;;;8.50;3.53;;;;;;;7.42;67.44;100306.59;4978531;28;20114;-53
2023/04/25 01:06:32;;;;;;;8.52;3.08;;;;;;;7.42;67.49;100301.34;4986028;28;20180;-52
2023/04/25 01:08:58;;;;;;;11.35;3.97;;;;;;;7.44;66.61;100299.50;4981023;28;20032;-52
2023/04/25 01:11:24;;;;;;;8.07;3.17;;;;;;;7.35;67.32;100297.22;4979547;28;20035;-52
2023/04/25 01:13:49;;;;;;;8.80;3.55;;;;;;;7.39;66.92;100296.19;4975064;28;20344;-52
2023/04/25 01:16:15;;;;;;;6.00;3.17;;;;;;;7.39;67.25;100295.31;4974791;28;20575;-52
2023/04/25 01:18:41;;;;;;;10.07;3.08;;;;;;;7.42;66.77;100287.31;4973557;28;20034;-53
2023/04/25 01:21:11;;;;;;;9.20;3.40;;;;;;;7.36;66.91;100291.06;4974808;28;20027;-51
2023/04/25 01:23:38;;;;;;;9.95;3.25;;;;;;;7.38;67.16;100283.94;4980988;28;20116;-53
2023/04/25 01:26:06;;;;;;;10.75;3.65;;;;;;;7.35;66.95;100295.44;4978627;28;20533;-52
2023/04/25 01:28:33;;;;;;;5.72;3.88;;;;;;;7.37;66.48;100284.84;4981832;28;20045;-52
2023/04/25 01:30:59;;;;;;;9.02;3.55;;;;;;;7.33;66.74;100297.28;4988932;28;20030;-52
2023/04/25 01:33:24;;;;;;;6.40;2.78;;;;;;;7.35;66.58;100289.31;4982976;28;20029;-52
2023/04/25 01:35:50;;;;;;;10.60;3.20;;;;;;;7.30;67.19;100286.03;4991400;28;20034;-52
2023/04/25 01:38:15;;;;;;;10.05;3.08;;;;;;;7.30;66.98;100284.25;4982579;28;20373;-52
2023/04/25 01:40:41;;;;;;;10.98;3.55;;;;;;;7.36;67.10;100285.78;4963086;28;20085;-52
2023/04/25 01:43:10;;;;;;;11.15;3.33;;;;;;;7.32;67.00;100284.19;4990415;28;20381;-51
2023/04/25 01:45:39;;;;;;;9.07;3.78;;;;;;;7.36;66.75;100291.06;4978304;28;20408;-51
2023/04/25 01:48:05;;;;;;;10.13;3.70;;;;;;;7.34;67.10;100277.13;4980513;28;20122;-52
2023/04/25 01:50:30;;;;;;;9.65;3.72;;;;;;;7.28;67.43;100287.88;4979825;28;20535;-52
2023/04/25 01:52:56;;;;;;;9.13;4.05;;;;;;;7.30;67.30;100281.63;4980099;28;20125;-52
2023/04/25 01:55:21;;;;;;;12.30;4.25;;;;;;;7.25;67.18;100275.69;5000124;28;20027;-51
2023/04/25 01:57:47;;;;;;;9.57;3.33;;;;;;;7.24;66.87;100292.41;5003648;28;20121;-51
2023/04/25 02:00:12;;;;;;;12.13;4.13;;;;;;;7.21;67.01;100283.75;4973953;28;20101;-51
2023/04/25 02:02:38;;;;;;;7.57;4.60;;;;;;;7.25;66.99;100288.84;4984454;28;20458;-51
2023/04/25 02:05:03;;;;;;;12.38;4.60;;;;;;;7.21;67.55;100286.38;4985428;28;20046;-51
2023/04/25 02:07:29;;;;;;;18.52;4.50;;;;;;;7.19;67.07;100294.31;4993671;28;20066;-51
2023/04/25 02:09:54;;;;;;;9.27;4.57;;;;;;;7.20;67.16;100295.19;4976551;28;20054;-52
2023/04/25 02:12:20;;;;;;;10.98;4.43;;;;;;;7.20;67.23;100289.94;4989314;28;20122;-51
2023/04/25 02:14:45;;;;;;;7.78;3.42;;;;;;;7.23;67.46;100289.81;4974702;28;20018;-52
2023/04/25 02:17:12;;;;;;;11.00;4.43;;;;;;;7.15;67.63;100283.06;4974165;28;20061;-51
2023/04/25 02:19:38;;;;;;;6.72;4.07;;;;;;;7.15;67.46;100280.44;4974525;28;20030;-53
2023/04/25 02:22:03;;;;;;;11.88;5.18;;;;;;;7.10;67.53;100285.03;4974354;28;20368;-51
2023/04/25 02:24:28;;;;;;;12.73;4.75;;;;;;;7.07;67.69;100285.16;4974408;28;20038;-51
2023/04/25 02:26:55;;;;;;;14.85;4.60;;;;;;;7.09;67.87;100272.78;4974122;28;20113;-51
2023/04/25 02:29:21;;;;;;;9.07;4.55;;;;;;;7.06;67.97;100283.44;4974443;28;20034;-52
2023/04/25 02:31:46;;;;;;;14.38;5.53;;;;;;;7.10;67.80;100279.78;4975590;28;20031;-52
2023/04/25 02:34:11;;;;;;;16.33;5.10;;;;;;;7.14;67.75;100284.00;4987699;28;20034;-51
2023/04/25 02:36:37;;;;;;;7.93;3.90;;;;;;;7.08;68.39;100279.00;4993498;28;20117;-52
2023/04/25 02:39:02;;;;;;;10.90;4.32;;;;;;;7.07;68.09;100279.03;4993344;28;20141;-51
2023/04/25 02:41:28;;;;;;;19.83;5.15;;;;;;;7.03;68.02;100273.06;4991854;28;20066;-51
2023/04/25 02:43:54;;;;;;;12.98;5.15;;;;;;;6.99;68.36;100274.91;4993503;28;20112;-51
2023/04/25 02:46:19;;;;;;;8.60;4.70;;;;;;;6.98;68.09;100280.25;4986783;28;20029;-51
2023/04/25 02:48:45;;;;;;;10.95;5.03;;;;;;;7.00;68.47;100265.28;4974570;28;20042;-51
2023/04/25 02:51:10;;;;;;;11.85;4.50;;;;;;;6.97;67.84;100274.13;4986176;28;20076;-51
2023/04/25 02:53:36;;;;;;;10.88;6.10;;;;;;;6.99;67.87;100269.66;4982632;28;20030;-51
2023/04/25 02:56:01;;;;;;;11.75;4.75;;;;;;;6.93;67.95;100269.03;4985698;28;20035;-51
2023/04/25 02:58:27;;;;;;;16.25;5.00;;;;;;;6.93;68.49;100275.19;4982176;28;20033;-51
2023/04/25 03:00:52;;;;;;;9.68;4.47;;;;;;;6.95;68.24;100267.25;4978912;28;20031;-52
2023/04/25 03:03:21;;;;;;;12.57;4.57;;;;;;;6.95;68.07;100264.63;4983171;28;20041;-51
2023/04/25 03:05:46;;;;;;;15.48;5.47;;;;;;;6.96;68.30;100266.31;4978891;28;20030;-52
2023/04/25 03:08:12;;;;;;;13.95;5.70;;;;;;;6.94;68.02;100269.00;4980144;28;20340;-51
2023/04/25 03:10:38;;;;;;;9.48;4.30;;;;;;;6.98;67.81;100269.75;4977322;28;20076;-52
2023/04/25 03:13:03;;;;;;;15.05;4.88;;;;;;;6.95;67.85;100269.88;4977802;28;20089;-51
2023/04/25 03:15:29;;;;;;;10.18;4.15;;;;;;;6.96;67.90;100267.19;4982103;28;20068;-52
2023/04/25 03:17:54;;;;;;;12.70;5.57;;;;;;;6.92;68.41;100265.56;4995422;28;20069;-51
2023/04/25 03:20:20;;;;;;;6.93;4.20;;;;;;;6.96;68.33;100271.56;4996584;28;20767;-51
2023/04/25 03:22:45;;;;;;;10.38;4.53;;;;;;;6.97;68.12;100273.28;4996869;28;20026;-51
2023/04/25 03:25:11;;;;;;;9.68;5.32;;;;;;;6.96;68.84;100271.56;4977532;28;20031;-51
2023/04/25 03:27:36;;;;;;;10.95;4.78;;;;;;;6.90;68.41;100271.78;4990486;28;20485;-51
2023/04/25 03:30:02;;;;;;;14.05;4.70;;;;;;;6.89;68.52;100275.34;4996276;28;20125;-51
2023/04/25 03:32:27;;;;;;;13.68;5.53;;;;;;;6.88;68.59;100264.00;4990860;28;20029;-51
2023/04/25 03:34:53;;;;;;;14.30;6.07;;;;;;;6.88;68.85;100273.63;4996443;28;20038;-51
2023/04/25 03:37:18;;;;;;;10.07;5.35;;;;;;;6.84;69.32;100272.88;4988150;28;20470;-51
2023/04/25 03:39:44;;;;;;;14.02;5.32;;;;;;;6.79;69.26;100280.94;4988436;28;20038;-51
2023/04/25 03:42:09;;;;;;;10.68;5.05;;;;;;;6.70;69.76;100275.16;4986391;28;20030;-51
2023/04/25 03:44:34;;;;;;;12.25;5.38;;;;;;;6.66;70.00;100279.69;4975963;28;20042;-51
2023/04/25 03:47:00;;;;;;;9.90;4.60;;;;;;;6.66;69.65;100282.31;4977464;28;20035;-51
2023/04/25 03:49:25;;;;;;;9.85;5.22;;;;;;;6.64;70.03;100276.28;4988719;28;20050;-51
2023/04/25 03:51:51;;;;;;;12.50;5.22;;;;;;;6.57;70.13;100282.63;4989815;28;20022;-51
2023/04/25 03:54:16;;;;;;;19.42;6.15;;;;;;;6.58;70.43;100293.09;4995067;28;20442;-51
2023/04/25 03:56:41;;;;;;;14.95;5.18;;;;;;;6.62;70.54;100283.34;4995869;28;20060;-52
2023/04/25 03:59:07;;;;;;;16.75;5.20;;;;;;;6.63;70.62;100278.94;4998742;28;20041;-51
2023/04/25 04:01:33;;;;;;;10.23;5.57;;;;;;;6.67;70.19;100281.41;4983798;28;20077;-51
2023/04/25 04:03:58;;;;;;;15.18;5.70;;;;;;;6.72;69.71;100284.72;4976884;28;20440;-51
2023/04/25 04:06:23;;;;;;;12.30;5.63;;;;;;;6.67;69.69;100291.91;4978739;28;20023;-51
2023/04/25 04:08:49;;;;;;;10.43;4.95;;;;;;;6.69;70.53;100294.50;4976294;28;20073;-51
2023/04/25 04:11:14;;;;;;;16.17;5.55;;;;;;;6.68;70.16;100303.28;4976283;28;20305;-51
2023/04/25 04:13:40;;;;;;;13.88;5.85;;;;;;;6.71;69.92;100296.13;4988816;28;20045;-51
2023/04/25 04:16:05;;;;;;;9.15;4.95;;;;;;;6.76;69.89;100302.06;4995520;28;20411;-51
2023/04/25 04:18:31;;;;;;;10.80;5.97;;;;;;;6.73;70.40;100299.53;4977343;28;20041;-51
2023/04/25 04:20:57;;;;;;;14.27;5.78;;;;;;;6.74;70.13;100305.69;4976135;28;20027;-51
2023/04/25 04:23:23;;;;;;;13.80;5.40;;;;;;;6.70;70.57;100304.94;4976178;28;20092;-51
2023/04/25 04:25:48;;;;;;;17.48;6.53;;;;;;;6.73;70.25;100312.69;4976154;28;20114;-51
2023/04/25 04:28:14;;;;;;;17.38;6.07;;;;;;;6.80;70.54;100311.56;4975908;28;20057;-51
2023/04/25 04:30:40;;;;;;;17.15;7.60;;;;;;;6.74;70.03;100306.53;4976030;28;20098;-51
2023/04/25 04:33:07;;;;;;;12.65;6.20;;;;;;;6.71;70.46;100314.50;4978700;28;20035;-53
2023/04/25 04:35:32;;;;;;;16.05;7.35;;;;;;;6.76;70.73;100312.56;4976352;28;20050;-53
2023/04/25 04:37:58;;;;;;;11.15;5.63;;;;;;;6.82;70.66;100318.50;4990116;28;20034;-51
2023/04/25 04:40:23;;;;;;;14.55;6.22;;;;;;;6.84;70.91;100314.94;4991289;28;20026;-50
2023/04/25 04:42:49;;;;;;;11.50;6.22;;;;;;;6.92;70.15;100317.28;4976550;28;20060;-51
2023/04/25 04:45:16;;;;;;;12.93;6.80;;;;;;;6.83;70.62;100323.72;4982441;28;20030;-50
2023/04/25 04:47:41;;;;;;;14.23;6.75;;;;;;;6.88;70.50;100326.16;4975451;28;20050;-51
2023/04/25 04:50:09;;;;;;;20.90;5.97;;;;;;;6.90;70.98;100321.72;4984330;28;20065;-53
2023/04/25 04:52:35;;;;;;;19.02;6.30;;;;;;;6.78;71.17;100321.28;4995441;28;20019;-50
2023/04/25 04:55:01;;;;;;;11.18;5.57;;;;;;;6.97;70.82;100320.59;4976178;28;20026;-50
2023/04/25 04:57:27;;;;;;;11.27;5.93;;;;;;;6.86;71.34;100333.25;4975415;28;20030;-52
2023/04/25 04:59:53;;;;;;;10.20;6.25;;;;;;;6.81;71.69;100325.53;4975337;28;20515;-50
2023/04/25 05:02:18;;;;;;;14.23;5.82;;;;;;;6.84;71.44;100327.22;4980531;28;20129;-52
2023/04/25 05:04:44;;;;;;;16.73;6.88;;;;;;;6.83;71.75;100326.34;4975241;28;20035;-50
2023/04/25 05:07:09;;;;;;;12.95;5.80;;;;;;;6.69;72.11;100341.75;4988422;28;20095;-50
2023/04/25 05:09:35;;;;;;;18.30;7.32;;;;;;;6.71;72.51;100340.78;4994744;28;20093;-50
2023/04/25 05:12:00;;;;;;;20.38;6.93;;;;;;;6.76;71.81;100338.00;4986489;28;20455;-52
2023/04/25 05:14:26;;;;;;;18.02;6.93;;;;;;;6.79;71.90;100336.09;4989385;28;20046;-52
2023/04/25 05:16:51;;;;;;;11.50;6.25;;;;;;;6.91;72.19;100331.31;4976374;28;20136;-51
2023/04/25 05:19:17;;;;;;;16.98;7.20;;;;;;;7.07;71.57;100327.19;4987347;28;20121;-52
2023/04/25 05:21:43;;;;;;;12.05;6.53;;;;;;;6.92;71.59;100339.13;4985160;28;20042;-50
2023/04/25 05:24:08;;;;;;;19.15;6.53;;;;;;;7.02;71.22;100344.91;4991657;28;20362;-52
2023/04/25 05:26:34;;;;;;;15.48;6.20;;;;;;;6.86;71.46;100328.00;4980973;28;20473;-52
2023/04/25 05:28:59;;;;;;;8.73;5.43;;;;;;;6.95;71.57;100335.56;4975302;28;20509;-52
2023/04/25 05:31:25;;;;;;;17.85;6.28;;;;;;;6.93;71.58;100324.22;4990805;28;20495;-53
2023/04/25 05:33:50;;;;;;;12.75;5.75;;;;;;;6.94;71.50;100325.94;4993022;28;20117;-51
2023/04/25 05:36:16;;;;;;;18.85;5.63;;;;;;;6.97;71.75;100328.47;4991688;28;20054;-51
2023/04/25 05:38:42;;;;;;;18.90;6.72;;;;;;;7.02;71.08;100333.56;4986713;28;20030;-52
2023/04/25 05:41:07;;;;;;;21.13;6.55;;;;;;;7.13;70.25;100334.84;4992953;28;20451;-52
2023/04/25 05:43:33;;;;;;;20.00;6.50;;;;;;;7.32;70.52;100342.03;4990144;28;20040;-51
2023/04/25 05:45:58;;;;;;;12.10;6.72;;;;;;;7.26;70.27;100342.28;4992388;28;20026;-51
2023/04/25 05:48:23;;;;;;;9.70;5.68;;;;;;;7.36;70.43;100338.38;4975858;28;20042;-51
2023/04/25 05:50:49;;;;;;;17.08;5.75;;;;;;;7.45;69.75;100337.16;4986942;28;20022;-52
2023/04/25 05:53:14;;;;;;;14.95;6.50;;;;;;;7.39;69.45;100351.41;4993962;28;20435;-52
2023/04/25 05:55:40;;;;;;;17.83;6.18;;;;;;;7.25;70.29;100345.81;4993175;28;20117;-52
2023/04/25 05:58:06;;;;;;;12.73;6.63;;;;;;;7.22;70.10;100345.94;4973189;28;20121;-51
2023/04/25 06:00:32;;;;;;;12.82;6.82;;;;;;;7.18;70.17;100355.72;4985276;28;20037;-51
2023/04/25 06:02:57;;;;;;;13.45;6.68;;;;;;;7.20;70.06;100353.88;4974496;28;20030;-51
2023/04/25 06:05:23;;;;;;;16.80;6.28;;;;;;;7.19;70.11;100351.31;4975640;28;20122;-52
2023/04/25 06:07:48;;;;;;;11.25;6.03;;;;;;;7.31;70.02;100364.00;4993199;28;20030;-51
2023/04/25 06:10:14;;;;;;;15.65;7.30;;;;;;;7.31;70.40;100361.38;4977489;28;20030;-51
2023/04/25 06:12:40;;;;;;;12.48;5.70;;;;;;;7.53;69.86;100367.47;4987193;28;20035;-52
2023/04/25 06:15:06;;;;;;;12.93;6.00;;;;;;;7.33;69.49;100367.41;4981234;28;20027;-52
2023/04/25 06:17:31;;;;;;;14.05;5.45;;;;;;;7.39;69.89;100359.31;4993616;28;20105;-52
2023/04/25 06:19:57;;;;;;;13.93;5.82;;;;;;;7.53;69.72;100370.13;4993897;28;20347;-51
2023/04/25 06:22:22;;;;;;;12.75;6.15;;;;;;;7.45;69.36;100372.19;4992241;28;20039;-50
2023/04/25 06:24:48;;;;;;;12.85;6.05;;;;;;;7.48;69.26;100369.44;4991237;28;20477;-51
2023/04/25 06:27:13;;;;;;;14.88;6.43;;;;;;;7.37;69.65;100361.09;4996698;28;20034;-52
2023/04/25 06:29:39;;;;;;;10.27;5.80;;;;;;;7.40;69.57;100361.00;4990396;28;20094;-51
2023/04/25 06:32:04;;;;;;;23.92;7.32;;;;;;;7.58;69.61;100369.09;4984937;28;20030;-52
2023/04/25 06:34:30;;;;;;;15.82;6.22;;;;;;;7.64;69.01;100367.06;4988322;28;20097;-52
2023/04/25 06:36:55;;;;;;;12.65;6.20;;;;;;;7.68;68.95;100383.59;4993635;28;20336;-51
2023/04/25 06:39:23;;;;;;;13.93;6.75;;;;;;;7.54;69.16;100382.34;4997951;28;20030;-52
2023/04/25 06:41:49;;;;;;;11.95;6.55;;;;;;;7.52;69.41;100386.84;4993691;28;20038;-50
2023/04/25 06:44:15;;;;;;;15.68;6.60;;;;;;;7.46;69.87;100384.44;4978627;28;20101;-51
2023/04/25 06:46:40;;;;;;;10.15;5.15;;;;;;;7.47;69.91;100388.78;4978644;28;20106;-52
2023/04/25 06:49:06;;;;;;;10.23;5.15;;;;;;;7.41;70.37;100381.13;4978517;28;20034;-52
2023/04/25 06:51:31;;;;;;;15.75;5.78;;;;;;;7.56;70.34;100384.94;4984406;28;20151;-52
2023/04/25 06:53:56;;;;;;;17.55;7.13;;;;;;;7.57;70.55;100388.41;4994756;28;20046;-52
2023/04/25 06:56:23;;;;;;;14.45;5.53;;;;;;;7.50;70.48;100378.16;4997241;28;20045;-52
2023/04/25 06:58:48;;;;;;;14.05;4.93;;;;;;;7.34;70.59;100382.28;4986842;28;20035;-52
2023/04/25 07:01:14;;;;;;;11.25;5.18;;;;;;;7.33;70.72;100384.03;4982819;28;20076;-52
2023/04/25 07:03:39;;;;;;;12.10;5.05;;;;;;;7.38;71.59;100401.44;4979618;28;20072;-53
2023/04/25 07:06:05;;;;;;;15.10;4.38;;;;;;;7.16;72.49;100403.09;4988565;28;20022;-52
2023/04/25 07:08:30;;;;;;;12.70;4.03;;;;;;;7.04;72.42;100400.03;4995792;28;20072;-52
2023/04/25 07:10:55;;;;;;;13.15;4.50;;;;;;;7.09;71.46;100414.72;4978498;28;20030;-52
2023/04/25 07:13:21;;;;;;;15.13;5.05;;;;;;;7.17;71.81;100420.56;4977948;28;20031;-52
2023/04/25 07:15:47;;;;;;;16.13;5.35;;;;;;;7.38;70.95;100409.31;4977314;28;20049;-52
2023/04/25 07:18:13;;;;;;;10.82;5.75;;;;;;;7.34;70.31;100414.69;4977449;28;20047;-52
2023/04/25 07:20:38;;;;;;;12.75;4.82;;;;;;;7.40;69.62;100421.47;4978567;28;20030;-52
2023/04/25 07:23:04;;;;;;;18.58;5.05;;;;;;;7.31;70.54;100422.69;4977249;28;20434;-52
2023/04/25 07:25:30;;;;;;;22.40;5.22;;;;;;;7.12;68.90;100430.38;4985939;28;20030;-52
2023/04/25 07:27:56;;;;;;;20.58;5.05;;;;;;;7.25;69.53;100429.94;4992574;28;20102;-53
2023/04/25 07:30:21;;;;;;;16.38;5.63;;;;;;;7.29;68.13;100427.16;4984132;28;20042;-52
2023/04/25 07:32:47;;;;;;;19.58;5.82;;;;;;;7.11;67.99;100433.94;4996424;28;20030;-52
2023/04/25 07:35:12;;;;;;;19.25;5.45;;;;;;;7.34;68.24;100434.88;4993600;28;20043;-52
2023/04/25 07:37:38;;;;;;;21.88;5.95;;;;;;;7.59;67.14;100428.69;4985868;28;20050;-52
2023/04/25 07:40:04;;;;;;;24.98;5.20;;;;;;;7.80;66.26;100438.38;4988342;28;20034;-52
2023/04/25 07:42:30;;;;;;;22.05;6.68;;;;;;;7.20;66.61;100445.03;4980487;28;20106;-52
2023/04/25 07:44:56;;;;;;;23.58;6.53;;;;;;;7.39;67.07;100456.59;4984167;28;20492;-52
2023/04/25 07:47:21;;;;;;;14.50;4.65;;;;;;;7.43;67.47;100449.44;4976746;28;20102;-51
2023/04/25 07:49:47;;;;;;;29.20;6.88;;;;;;;7.47;67.70;100451.91;4993997;28;20031;-52
2023/04/25 07:52:12;;;;;;;21.17;5.25;;;;;;;7.59;68.32;100455.00;4992064;28;20049;-52
2023/04/25 07:54:38;;;;;;;18.13;4.95;;;;;;;7.47;67.10;100451.91;4980264;28;20038;-51
2023/04/25 07:57:03;;;;;;;16.48;5.28;;;;;;;7.42;67.92;100469.63;4995412;28;20443;-52
2023/04/25 07:59:29;;;;;;;17.77;5.00;;;;;;;7.46;68.39;100465.94;4983626;28;20030;-52
2023/04/25 08:01:54;;;;;;;24.00;6.18;;;;;;;7.39;68.46;100469.75;4995986;28;20034;-52
2023/04/25 08:04:20;;;;;;;17.27;4.20;;;;;;;7.44;68.73;100467.78;4984107;28;20030;-53
2023/04/25 08:06:46;;;;;;;17.38;5.13;;;;;;;7.26;68.79;100473.75;4987540;28;20030;-52
2023/04/25 08:09:11;;;;;;;20.45;6.13;;;;;;;7.72;67.59;100461.50;4995269;28;20049;-53
2023/04/25 08:11:37;;;;;;;30.80;5.57;;;;;;;7.95;66.26;100457.97;4994907;28;20100;-51
2023/04/25 08:14:02;;;;;;;16.85;5.35;;;;;;;7.89;66.05;100459.06;4979223;28;20062;-53
2023/04/25 08:16:28;;;;;;;25.15;5.47;;;;;;;8.08;65.83;100468.88;4980616;28;20141;-53
2023/04/25 08:18:54;;;;;;;25.35;4.80;;;;;;;8.46;64.85;100479.66;4995987;28;20070;-52
2023/04/25 08:21:20;;;;;;;15.85;5.07;;;;;;;8.20;64.21;100472.78;4984212;28;20034;-52
2023/04/25 08:23:45;;;;;;;15.05;3.67;;;;;;;8.21;63.91;100475.34;4993211;28;20431;-53
2023/04/25 08:26:11;;;;;;;20.00;4.65;;;;;;;8.48;63.53;100476.94;4995294;28;20034;-52
2023/04/25 08:28:37;;;;;;;18.88;4.53;;;;;;;8.60;62.71;100477.31;4995744;28;20053;-52
2023/04/25 08:31:02;;;;;;;11.55;4.15;;;;;;;8.71;61.46;100476.00;4992175;28;20093;-52
2023/04/25 08:33:27;;;;;;;17.70;5.22;;;;;;;8.72;61.75;100485.63;4994852;28;20470;-52
2023/04/25 08:35:53;;;;;;;9.30;4.07;;;;;;;9.02;61.02;100487.84;4991606;28;20030;-52
2023/04/25 08:38:19;;;;;;;20.30;5.15;;;;;;;9.05;61.25;100493.00;4987888;28;20026;-52
2023/04/25 08:40:49;;;;;;;30.08;4.88;;;;;;;8.90;59.34;100490.09;4987188;28;20039;-51
2023/04/25 08:43:14;;;;;;;18.42;3.80;;;;;;;8.75;58.40;100491.59;4975354;28;20240;-52
2023/04/25 08:45:41;;;;;;;13.80;4.13;;;;;;;8.93;57.14;100500.50;4975513;28;20030;-52
2023/04/25 08:48:17;;;;;;;21.67;4.93;;;;;;;9.25;55.80;100503.53;4984163;28;20030;-52
2023/04/25 08:50:53;;;;;;;17.27;3.50;;;;;;;8.99;52.92;100515.19;4992516;28;20114;-52
2023/04/25 08:53:36;;;;;;;19.38;3.10;;;;;;;8.60;51.58;100506.28;4989242;28;20045;-53
2023/04/25 08:56:02;;;;;;;16.35;3.20;;;;;;;8.62;52.35;100516.75;4997107;28;20032;-52
2023/04/25 08:58:28;;;;;;;25.02;5.75;;;;;;;9.07;51.92;100509.59;5004445;28;20356;-52
2023/04/25 09:00:54;;;;;;;16.75;3.35;;;;;;;9.11;50.64;100513.84;4980644;28;20035;-52
2023/04/25 09:03:19;;;;;;;17.75;4.18;;;;;;;9.35;50.77;100502.22;4993717;28;20038;-53
2023/04/25 09:05:45;;;;;;;17.02;3.63;;;;;;;9.48;49.58;100506.91;4977110;28;20370;-53
2023/04/25 09:08:10;;;;;;;18.88;4.72;;;;;;;9.33;49.19;100508.47;4993758;28;20026;-53
2023/04/25 09:10:36;;;;;;;16.00;3.70;;;;;;;9.37;49.29;100512.69;4981039;28;20066;-53
2023/04/25 09:13:04;;;;;;;18.70;4.90;;;;;;;10.15;49.49;100516.16;4983977;28;20057;-54
2023/04/25 09:15:31;;;;;;;15.02;3.47;;;;;;;9.99;49.16;100523.94;4991362;28;20113;-53
2023/04/25 09:17:57;;;;;;;12.10;2.97;;;;;;;10.03;48.31;100525.50;4994678;28;20051;-53
2023/04/25 09:20:24;;;;;;;15.23;3.80;;;;;;;10.52;47.16;100532.06;4988565;28;20450;-53
2023/04/25 09:23:01;;;;;;;12.82;4.13;;;;;;;10.32;48.24;100527.72;4998734;28;20022;-53
2023/04/25 09:25:26;;;;;;;15.45;3.88;;;;;;;10.05;48.50;100528.94;5001848;28;20577;-52
2023/04/25 09:27:54;;;;;;;16.35;3.55;;;;;;;10.11;50.07;100527.78;5005494;28;20124;-52
2023/04/25 09:30:29;;;;;;;16.63;4.30;;;;;;;10.10;47.67;100532.22;4994165;28;20105;-53
2023/04/25 09:33:13;;;;;;;13.60;3.95;;;;;;;9.95;45.91;100543.47;4993093;28;20038;-53
2023/04/25 09:35:43;;;;;;;15.98;2.97;;;;;;;9.46;46.83;100532.53;4994451;28;20027;-53
2023/04/25 09:38:13;;;;;;;15.60;3.35;;;;;;;9.69;46.56;100537.63;4992992;28;20037;-53
2023/04/25 09:40:46;;;;;;;13.30;4.28;;;;;;;9.89;46.43;100538.50;4994177;28;20467;-52
2023/04/25 09:43:22;;;;;;;23.92;3.53;;;;;;;10.12;45.40;100540.06;4996660;28;20070;-53
2023/04/25 09:45:48;;;;;;;18.02;3.70;;;;;;;10.40;45.49;100539.63;4980427;28;20026;-53
2023/04/25 09:48:24;;;;;;;15.32;3.63;;;;;;;10.45;43.62;100550.84;5008284;28;20030;-53
2023/04/25 09:51:16;;;;;;;9.40;2.80;;;;;;;10.83;43.19;100550.72;4993450;28;20037;-54
2023/04/25 09:53:44;;;;;;;12.23;2.35;;;;;;;11.34;43.46;100542.00;4979978;28;20047;-53
2023/04/25 09:56:11;;;;;;;16.15;3.33;;;;;;;10.61;42.25;100542.19;4980705;28;20061;-53
2023/04/25 09:58:38;;;;;;;8.10;2.58;;;;;;;10.75;42.74;100550.25;4989955;28;20367;-53
2023/04/25 10:01:08;;;;;;;7.18;2.97;;;;;;;10.54;42.28;100559.25;4992467;28;20463;-53
2023/04/25 10:03:36;;;;;;;13.48;2.33;;;;;;;10.43;42.84;100544.78;4992893;28;20114;-53
2023/04/25 10:06:04;;;;;;;15.43;2.63;;;;;;;10.25;43.43;100558.84;4985346;28;20030;-53
2023/04/25 10:08:34;;;;;;;9.38;2.50;;;;;;;10.51;43.67;100551.47;4992545;28;20025;-54
2023/04/25 10:11:01;;;;;;;9.90;2.47;;;;;;;10.42;44.08;100564.19;4985020;28;20042;-54
2023/04/25 10:13:29;;;;;;;10.02;2.45;;;;;;;10.09;43.95;100561.34;4992015;28;20030;-53
2023/04/25 10:15:55;;;;;;;18.05;3.63;;;;;;;10.44;43.72;100566.75;4997541;28;20038;-54
2023/04/25 10:18:21;;;;;;;13.77;3.25;;;;;;;10.49;42.11;100563.91;4986013;28;20029;-53
2023/04/25 10:20:46;;;;;;;16.42;3.17;;;;;;;10.58;43.17;100569.59;4977498;28;20085;-54
2023/04/25 10:23:16;;;;;;;18.42;4.25;;;;;;;11.00;41.82;100565.78;4992707;28;20026;-53
2023/04/25 10:25:42;;;;;;;13.73;2.55;;;;;;;11.14;41.05;100557.13;4991526;28;20026;-53
2023/04/25 10:28:08;;;;;;;15.40;3.58;;;;;;;10.98;41.57;100572.06;4984904;28;20058;-53
2023/04/25 10:30:33;;;;;;;13.40;2.88;;;;;;;10.31;42.94;100571.75;5001015;28;20026;-53
2023/04/25 10:32:59;;;;;;;16.77;4.25;;;;;;;10.35;42.69;100573.34;4994961;28;20030;-53
2023/04/25 10:35:30;;;;;;;15.02;3.55;;;;;;;10.39;43.78;100574.91;4987468;28;20035;-53
2023/04/25 10:38:05;;;;;;;10.75;2.90;;;;;;;10.76;41.99;100578.41;5004204;28;20371;-54
2023/04/25 10:40:31;;;;;;;7.88;2.70;;;;;;;10.53;43.17;100583.97;4991249;28;20113;-53
2023/04/25 10:43:31;;;;;;;12.80;3.30;;;;;;;10.03;43.38;100593.31;4985863;28;20069;-53
2023/04/25 10:46:00;;;;;;;27.75;3.10;;;;;;;9.77;43.18;100591.84;4987070;28;20341;-53
2023/04/25 10:48:29;;;;;;;17.00;3.75;;;;;;;10.21;43.96;100602.16;4992888;28;20026;-52
2023/04/25 10:51:23;;;;;;;12.63;2.70;;;;;;;9.95;43.42;100596.28;4990186;28;20029;-52
2023/04/25 10:53:55;;;;;;;13.13;2.25;;;;;;;10.05;43.63;100608.16;4994560;28;20034;-53
2023/04/25 10:56:21;;;;;;;;;;;;;;;9.37;43.90;100590.03;4990132;28;20093;-51
2023/04/25 10:58:47;;;;;;;7.22;2.67;;;;;;;9.44;44.01;100589.78;4989317;28;20338;-52
2023/04/25 11:01:14;;;;;;;10.00;2.75;;;;;;;9.46;44.31;100603.75;4975182;28;20035;-53
2023/04/25 11:03:44;;;;;;;16.52;3.63;;;;;;;9.17;44.15;100613.75;4993212;28;20046;-53
2023/04/25 11:06:23;;;;;;;12.07;3.65;;;;;;;9.10;44.39;100612.31;4988804;28;20029;-53
2023/04/25 11:08:51;;;;;;;10.77;2.72;;;;;;;9.04;44.91;100618.72;4992728;28;20030;-53
2023/04/25 11:11:18;;;;;;;14.65;2.88;;;;;;;9.43;45.01;100617.94;4983086;28;20030;-53
2023/04/25 11:13:44;;;;;;;11.00;2.75;;;;;;;9.20;44.46;100613.63;4994557;28;20500;-54
2023/04/25 11:16:10;;;;;;;11.20;4.10;;;;;;;8.94;45.25;100618.22;4984471;28;20050;-53
2023/04/25 11:18:35;;;;;;;16.60;3.03;;;;;;;8.54;45.80;100622.44;4995108;28;20034;-52
2023/04/25 11:21:02;;;;;;;13.75;3.42;;;;;;;8.75;45.66;100625.16;4975459;28;20066;-52
2023/04/25 11:23:30;;;;;;;12.73;2.80;;;;;;;9.02;45.61;100631.06;4984185;28;20034;-53